Time;durP1;ratioP1;P1;durP2;ratioP2;P2;SDS_P1;SDS_P2;PMS_P1;PMS_P2;Temp;Humidity;BMP_temperature;BMP_pressure;BME280_temperature;BME280_humidity;BME280_pressure;Samples;Min_cycle;Max_cycle;Signal;HPM_P1;HPM_P2
2023/07/19 00:01:33;;;;;;;0.10;0.10;;;;;;;;;;5112180;28;20054;-53
2023/07/19 00:03:58;;;;;;;0.10;0.10;;;;;;;;;;5111900;28;20096;-52
2023/07/19 00:06:24;;;;;;;0.10;0.10;;;;;;;;;;5112347;28;20061;-53
2023/07/19 00:08:50;;;;;;;0.10;0.10;;;;;;;;;;5091573;28;20087;-52
2023/07/19 00:11:16;;;;;;;0.10;0.10;;;;;;;;;;5103950;28;20052;-52
2023/07/19 00:13:41;;;;;;;0.10;0.10;;;;;;;;;;5111072;28;20051;-52
2023/07/19 00:16:07;;;;;;;0.10;0.10;;;;;;;;;;5111587;28;20047;-52
2023/07/19 00:18:32;;;;;;;0.10;0.10;;;;;;;;;;5111001;28;20052;-52
2023/07/19 00:20:58;;;;;;;0.10;0.10;;;;;;;;;;5110602;28;20508;-52
2023/07/19 00:23:23;;;;;;;0.10;0.10;;;;;;;;;;5111363;28;20047;-52
2023/07/19 00:25:49;;;;;;;0.10;0.10;;;;;;;;;;5111585;28;20051;-53
2023/07/19 00:28:14;;;;;;;0.10;0.10;;;;;;;;;;5111547;28;20048;-52
2023/07/19 00:30:40;;;;;;;0.10;0.10;;;;;;;;;;5111348;28;20054;-53
2023/07/19 00:33:06;;;;;;;0.10;0.10;;;;;;;;;;5111390;28;20044;-52
2023/07/19 00:35:32;;;;;;;0.10;0.10;;;;;;;;;;5111281;28;20058;-52
2023/07/19 00:37:57;;;;;;;0.10;0.10;;;;;;;;;;5111260;28;20059;-52
2023/07/19 00:40:23;;;;;;;0.10;0.10;;;;;;;;;;5110507;28;20481;-53
2023/07/19 00:42:54;;;;;;;0.10;0.10;;;;;;;;;;5111117;28;20070;-52
2023/07/19 00:45:20;;;;;;;0.10;0.10;;;;;;;;;;5110837;28;20051;-53
2023/07/19 00:47:45;;;;;;;0.10;0.10;;;;;;;;;;5111342;28;20483;-53
2023/07/19 00:50:11;;;;;;;0.10;0.10;;;;;;;;;;5110408;28;20400;-53
2023/07/19 00:52:37;;;;;;;0.10;0.10;;;;;;;;;;5111245;28;20051;-51
2023/07/19 00:55:03;;;;;;;0.10;0.10;;;;;;;;;;5111298;28;20054;-52
2023/07/19 00:57:29;;;;;;;0.10;0.10;;;;;;;;;;5110511;28;20079;-51
2023/07/19 00:59:54;;;;;;;0.10;0.10;;;;;;;;;;5110966;28;20397;-53
2023/07/19 01:02:20;;;;;;;0.10;0.10;;;;;;;;;;5111165;28;20047;-52
2023/07/19 01:04:45;;;;;;;0.10;0.10;;;;;;;;;;5113419;28;20046;-53
2023/07/19 01:07:11;;;;;;;0.10;0.10;;;;;;;;;;5131831;28;20058;-53
2023/07/19 01:09:36;;;;;;;0.10;0.10;;;;;;;;;;5131649;28;20135;-52
2023/07/19 01:12:02;;;;;;;0.10;0.10;;;;;;;;;;5089822;28;20044;-52
2023/07/19 01:14:28;;;;;;;0.10;0.10;;;;;;;;;;5090392;28;20048;-52
2023/07/19 01:16:53;;;;;;;0.10;0.10;;;;;;;;;;5090261;28;20083;-53
2023/07/19 01:19:19;;;;;;;0.10;0.10;;;;;;;;;;5090396;28;20051;-52
2023/07/19 01:21:45;;;;;;;0.10;0.10;;;;;;;;;;5098285;28;20097;-52
2023/07/19 01:24:11;;;;;;;0.10;0.10;;;;;;;;;;5089364;28;20101;-53
2023/07/19 01:26:36;;;;;;;0.10;0.10;;;;;;;;;;5108650;28;20090;-52
2023/07/19 01:29:02;;;;;;;0.10;0.10;;;;;;;;;;5110870;28;20143;-53
2023/07/19 01:31:27;;;;;;;0.10;0.10;;;;;;;;;;5110102;28;20052;-52
2023/07/19 01:33:53;;;;;;;0.10;0.10;;;;;;;;;;5110672;28;20125;-53
2023/07/19 01:36:18;;;;;;;0.10;0.10;;;;;;;;;;5110225;28;20055;-53
2023/07/19 01:38:44;;;;;;;0.10;0.10;;;;;;;;;;5110637;28;20070;-52
2023/07/19 01:41:09;;;;;;;0.10;0.10;;;;;;;;;;5109656;28;20271;-53
2023/07/19 01:43:35;;;;;;;0.10;0.10;;;;;;;;;;5110260;28;20416;-53
2023/07/19 01:46:00;;;;;;;0.10;0.10;;;;;;;;;;5109701;28;20404;-53
2023/07/19 01:48:27;;;;;;;0.10;0.10;;;;;;;;;;5110479;28;20055;-53
2023/07/19 01:50:52;;;;;;;0.10;0.10;;;;;;;;;;5110018;28;20494;-52
2023/07/19 01:53:18;;;;;;;0.10;0.10;;;;;;;;;;5110431;28;20052;-53
2023/07/19 01:55:43;;;;;;;0.10;0.10;;;;;;;;;;5110666;28;20051;-53
2023/07/19 01:58:09;;;;;;;0.10;0.10;;;;;;;;;;5109601;28;20089;-52
2023/07/19 02:00:35;;;;;;;0.10;0.10;;;;;;;;;;5101978;28;20048;-53
2023/07/19 02:03:00;;;;;;;0.10;0.10;;;;;;;;;;5094918;28;20446;-53
2023/07/19 02:05:26;;;;;;;0.10;0.10;;;;;;;;;;5118862;28;20055;-52
2023/07/19 02:07:52;;;;;;;0.10;0.10;;;;;;;;;;5130401;28;20050;-52
2023/07/19 02:10:17;;;;;;;0.10;0.10;;;;;;;;;;5118272;28;20407;-52
2023/07/19 02:12:43;;;;;;;0.20;0.20;;;;;;;;;;5110162;28;20564;-51
2023/07/19 02:15:09;;;;;;;0.10;0.10;;;;;;;;;;5109897;28;20466;-53
2023/07/19 02:17:34;;;;;;;0.10;0.10;;;;;;;;;;5110256;28;20476;-52
2023/07/19 02:20:00;;;;;;;0.10;0.10;;;;;;;;;;5110293;28;20052;-52
2023/07/19 02:22:26;;;;;;;0.10;0.10;;;;;;;;;;5110607;28;20392;-52
2023/07/19 02:24:51;;;;;;;0.10;0.10;;;;;;;;;;5109778;28;20101;-53
2023/07/19 02:27:17;;;;;;;0.10;0.10;;;;;;;;;;5109942;28;20121;-53
2023/07/19 02:29:42;;;;;;;0.10;0.10;;;;;;;;;;5109466;28;20047;-53
2023/07/19 02:32:08;;;;;;;0.20;0.20;;;;;;;;;;5089520;28;20051;-53
2023/07/19 02:34:33;;;;;;;0.10;0.10;;;;;;;;;;5090208;28;20070;-52
2023/07/19 02:36:59;;;;;;;0.10;0.10;;;;;;;;;;5096710;28;20039;-53
2023/07/19 02:39:27;;;;;;;0.10;0.10;;;;;;;;;;5113537;28;20400;-52
2023/07/19 02:41:53;;;;;;;0.10;0.10;;;;;;;;;;5113329;28;20047;-53
2023/07/19 02:44:19;;;;;;;0.10;0.10;;;;;;;;;;5113452;28;20093;-52
2023/07/19 02:46:44;;;;;;;0.10;0.10;;;;;;;;;;5113192;28;20411;-53
2023/07/19 02:49:11;;;;;;;0.10;0.10;;;;;;;;;;5113584;28;20055;-53
2023/07/19 02:51:37;;;;;;;0.10;0.10;;;;;;;;;;5096698;28;20056;-53
2023/07/19 02:54:03;;;;;;;0.10;0.10;;;;;;;;;;5093576;28;20553;-44
2023/07/19 02:56:28;;;;;;;0.10;0.10;;;;;;;;;;5093249;28;20196;-44
2023/07/19 02:58:54;;;;;;;0.10;0.10;;;;;;;;;;5092692;28;20260;-44
2023/07/19 03:01:19;;;;;;;0.10;0.10;;;;;;;;;;5106288;28;20055;-44
2023/07/19 03:03:45;;;;;;;0.10;0.10;;;;;;;;;;5112768;28;20077;-45
2023/07/19 03:06:11;;;;;;;0.10;0.10;;;;;;;;;;5112979;28;20142;-46
2023/07/19 03:08:37;;;;;;;0.10;0.10;;;;;;;;;;5112985;28;20081;-46
2023/07/19 03:11:03;;;;;;;0.10;0.10;;;;;;;;;;5112283;28;20051;-44
2023/07/19 03:13:29;;;;;;;0.10;0.10;;;;;;;;;;5112701;28;20079;-43
2023/07/19 03:15:54;;;;;;;0.10;0.10;;;;;;;;;;5112428;28;20054;-44
2023/07/19 03:18:20;;;;;;;0.20;0.20;;;;;;;;;;5112573;28;20047;-46
2023/07/19 03:20:45;;;;;;;0.10;0.10;;;;;;;;;;5112310;28;20047;-42
2023/07/19 03:23:11;;;;;;;0.10;0.10;;;;;;;;;;5112415;28;20043;-43
2023/07/19 03:25:37;;;;;;;0.10;0.10;;;;;;;;;;5111908;28;20047;-46
2023/07/19 03:28:02;;;;;;;0.10;0.10;;;;;;;;;;5112484;28;20059;-44
2023/07/19 03:30:28;;;;;;;0.10;0.10;;;;;;;;;;5112028;28;20383;-44
2023/07/19 03:32:54;;;;;;;0.10;0.10;;;;;;;;;;5111972;28;20056;-43
2023/07/19 03:35:20;;;;;;;0.10;0.10;;;;;;;;;;5111982;28;20496;-45
2023/07/19 03:37:47;;;;;;;0.15;0.15;;;;;;;;;;5112542;28;20055;-44
2023/07/19 03:40:13;;;;;;;0.10;0.10;;;;;;;;;;5106759;28;20087;-44
2023/07/19 03:42:39;;;;;;;0.10;0.10;;;;;;;;;;5092765;28;20055;-44
2023/07/19 03:45:05;;;;;;;0.10;0.10;;;;;;;;;;5106347;28;20415;-43
2023/07/19 03:47:31;;;;;;;0.10;0.10;;;;;;;;;;5110287;28;20047;-46
2023/07/19 03:49:56;;;;;;;0.10;0.10;;;;;;;;;;5109944;28;20051;-46
2023/07/19 03:52:22;;;;;;;0.10;0.10;;;;;;;;;;5092113;28;20052;-44
2023/07/19 03:54:48;;;;;;;0.10;0.10;;;;;;;;;;5092289;28;20401;-46
2023/07/19 03:57:13;;;;;;;0.10;0.10;;;;;;;;;;5092021;28;20063;-43
2023/07/19 03:59:39;;;;;;;0.10;0.10;;;;;;;;;;5091547;28;20047;-41
2023/07/19 04:02:05;;;;;;;0.10;0.10;;;;;;;;;;5111829;28;20093;-42
2023/07/19 04:04:30;;;;;;;0.10;0.10;;;;;;;;;;5130002;28;20047;-43
2023/07/19 04:06:56;;;;;;;0.10;0.10;;;;;;;;;;5125561;28;20039;-44
2023/07/19 04:09:21;;;;;;;0.10;0.10;;;;;;;;;;5111966;28;20043;-43
2023/07/19 04:11:47;;;;;;;0.10;0.10;;;;;;;;;;5111516;28;20047;-44
2023/07/19 04:14:12;;;;;;;0.10;0.10;;;;;;;;;;5112399;28;20101;-43
2023/07/19 04:16:38;;;;;;;0.10;0.10;;;;;;;;;;5112185;28;20222;-44
2023/07/19 04:19:03;;;;;;;0.10;0.10;;;;;;;;;;5112221;28;20385;-44
2023/07/19 04:21:29;;;;;;;0.10;0.10;;;;;;;;;;5111692;28;20048;-44
2023/07/19 04:23:55;;;;;;;0.10;0.10;;;;;;;;;;5112254;28;20411;-44
2023/07/19 04:26:24;;;;;;;0.10;0.10;;;;;;;;;;5111813;28;20055;-44
2023/07/19 04:28:50;;;;;;;0.10;0.10;;;;;;;;;;5111805;28;20093;-42
2023/07/19 04:31:16;;;;;;;0.10;0.10;;;;;;;;;;5111252;28;20151;-43
2023/07/19 04:33:41;;;;;;;0.10;0.10;;;;;;;;;;5112017;28;20181;-44
2023/07/19 04:36:11;;;;;;;0.10;0.10;;;;;;;;;;5111818;28;20047;-43
2023/07/19 04:38:36;;;;;;;0.20;0.20;;;;;;;;;;5111911;28;20044;-42
2023/07/19 04:41:02;;;;;;;0.10;0.10;;;;;;;;;;5111002;28;20051;-43
2023/07/19 04:43:27;;;;;;;0.10;0.10;;;;;;;;;;5111727;28;20052;-43
2023/07/19 04:45:53;;;;;;;0.10;0.10;;;;;;;;;;5111006;28;20063;-42
2023/07/19 04:48:19;;;;;;;0.10;0.10;;;;;;;;;;5111358;28;20537;-44
2023/07/19 04:50:44;;;;;;;0.10;0.10;;;;;;;;;;5102259;28;20044;-46
2023/07/19 04:53:10;;;;;;;0.10;0.10;;;;;;;;;;5091197;28;20059;-43
2023/07/19 04:55:35;;;;;;;0.10;0.10;;;;;;;;;;5091665;28;20089;-43
2023/07/19 04:58:01;;;;;;;0.10;0.10;;;;;;;;;;5091203;28;20044;-46
2023/07/19 05:00:27;;;;;;;0.10;0.10;;;;;;;;;;5091002;28;20044;-45
2023/07/19 05:02:52;;;;;;;0.10;0.10;;;;;;;;;;5103615;28;20058;-44
2023/07/19 05:05:18;;;;;;;0.10;0.10;;;;;;;;;;5111147;28;20043;-44
2023/07/19 05:07:44;;;;;;;0.10;0.10;;;;;;;;;;5111600;28;20051;-43
2023/07/19 05:10:09;;;;;;;0.10;0.10;;;;;;;;;;5110673;28;20100;-43
2023/07/19 05:12:35;;;;;;;0.10;0.10;;;;;;;;;;5111223;28;20043;-44
2023/07/19 05:15:01;;;;;;;0.10;0.10;;;;;;;;;;5097814;28;20096;-41
2023/07/19 05:17:26;;;;;;;0.10;0.10;;;;;;;;;;5090590;28;20072;-40
2023/07/19 05:19:52;;;;;;;0.10;0.10;;;;;;;;;;5092458;28;20056;-43
2023/07/19 05:22:17;;;;;;;0.10;0.10;;;;;;;;;;5111196;28;20058;-43
2023/07/19 05:24:43;;;;;;;0.10;0.10;;;;;;;;;;5111211;28;20051;-42
2023/07/19 05:27:09;;;;;;;0.10;0.10;;;;;;;;;;5111209;28;20445;-40
2023/07/19 05:29:34;;;;;;;0.10;0.10;;;;;;;;;;5110688;28;20466;-41
2023/07/19 05:32:00;;;;;;;0.10;0.10;;;;;;;;;;5110732;28;20097;-44
2023/07/19 05:34:25;;;;;;;0.10;0.10;;;;;;;;;;5110801;28;20048;-43
2023/07/19 05:36:51;;;;;;;0.10;0.10;;;;;;;;;;5111413;28;20043;-39
2023/07/19 05:39:17;;;;;;;0.10;0.10;;;;;;;;;;5111079;28;20062;-44
2023/07/19 05:41:42;;;;;;;0.10;0.10;;;;;;;;;;5110652;28;20078;-40
2023/07/19 05:44:08;;;;;;;0.10;0.10;;;;;;;;;;5110590;28;20059;-42
2023/07/19 05:46:38;;;;;;;0.10;0.10;;;;;;;;;;5110281;28;20056;-43
2023/07/19 05:49:03;;;;;;;0.10;0.10;;;;;;;;;;5110213;28;20139;-43
2023/07/19 05:51:29;;;;;;;0.10;0.10;;;;;;;;;;5095000;28;20048;-44
2023/07/19 05:53:54;;;;;;;0.10;0.10;;;;;;;;;;5090545;28;20052;-44
2023/07/19 05:56:21;;;;;;;0.10;0.10;;;;;;;;;;5090604;28;20044;-41
2023/07/19 05:58:47;;;;;;;0.10;0.10;;;;;;;;;;5090417;28;20048;-44
2023/07/19 06:01:17;;;;;;;0.10;0.10;;;;;;;;;;5096542;28;20078;-39
2023/07/19 06:03:44;;;;;;;0.20;0.20;;;;;;;;;;5110859;28;20056;-41
2023/07/19 06:06:09;;;;;;;0.10;0.10;;;;;;;;;;5110670;28;20124;-46
2023/07/19 06:08:37;;;;;;;0.10;0.10;;;;;;;;;;5110681;28;20048;-43
2023/07/19 06:11:02;;;;;;;0.15;0.15;;;;;;;;;;5099870;28;20100;-42
2023/07/19 06:13:28;;;;;;;0.10;0.10;;;;;;;;;;5093213;28;20052;-41
2023/07/19 06:15:54;;;;;;;0.10;0.10;;;;;;;;;;5093611;28;20076;-44
2023/07/19 06:18:19;;;;;;;0.10;0.10;;;;;;;;;;5093605;28;20051;-41
2023/07/19 06:20:45;;;;;;;0.10;0.10;;;;;;;;;;5092885;28;20102;-42
2023/07/19 06:23:10;;;;;;;0.10;0.10;;;;;;;;;;5093708;28;20075;-44
2023/07/19 06:25:36;;;;;;;0.10;0.10;;;;;;;;;;5093724;28;20461;-43
2023/07/19 06:28:02;;;;;;;0.10;0.10;;;;;;;;;;5093486;28;20497;-43
2023/07/19 06:30:28;;;;;;;0.10;0.10;;;;;;;;;;5098480;28;20051;-40
2023/07/19 06:32:54;;;;;;;0.10;0.10;;;;;;;;;;5113740;28;20466;-43
2023/07/19 06:35:19;;;;;;;0.10;0.10;;;;;;;;;;5112928;28;20047;-41
2023/07/19 06:37:45;;;;;;;0.10;0.10;;;;;;;;;;5113616;28;20051;-40
2023/07/19 06:40:10;;;;;;;0.15;0.15;;;;;;;;;;5108544;28;20131;-43
2023/07/19 06:42:36;;;;;;;0.10;0.10;;;;;;;;;;5093141;28;20051;-42
2023/07/19 06:45:01;;;;;;;0.10;0.10;;;;;;;;;;5107563;28;20043;-42
2023/07/19 06:47:28;;;;;;;0.10;0.10;;;;;;;;;;5112609;28;20134;-41
2023/07/19 06:49:54;;;;;;;0.10;0.10;;;;;;;;;;5111179;28;20473;-44
2023/07/19 06:52:20;;;;;;;0.10;0.10;;;;;;;;;;5112969;28;20044;-44
2023/07/19 06:54:45;;;;;;;0.10;0.10;;;;;;;;;;5112290;28;20050;-43
2023/07/19 06:57:11;;;;;;;0.10;0.10;;;;;;;;;;5112943;28;20490;-41
2023/07/19 06:59:36;;;;;;;0.10;0.10;;;;;;;;;;5112997;28;20393;-45
2023/07/19 07:02:02;;;;;;;0.10;0.10;;;;;;;;;;5117353;28;20049;-40
2023/07/19 07:04:28;;;;;;;0.10;0.10;;;;;;;;;;5133959;28;20050;-41
2023/07/19 07:06:53;;;;;;;0.10;0.10;;;;;;;;;;5131338;28;20127;-44
2023/07/19 07:09:19;;;;;;;0.10;0.10;;;;;;;;;;5110826;28;20454;-43
2023/07/19 07:11:44;;;;;;;0.10;0.10;;;;;;;;;;5094302;28;20052;-40
2023/07/19 07:14:10;;;;;;;0.10;0.10;;;;;;;;;;5092242;28;20210;-41
2023/07/19 07:16:36;;;;;;;0.10;0.10;;;;;;;;;;5092127;28;20677;-42
2023/07/19 07:19:02;;;;;;;0.10;0.10;;;;;;;;;;5092143;28;20052;-44
2023/07/19 07:21:27;;;;;;;0.10;0.10;;;;;;;;;;5092176;28;20075;-43
2023/07/19 07:23:53;;;;;;;0.10;0.10;;;;;;;;;;5091887;28;20401;-43
2023/07/19 07:26:19;;;;;;;0.10;0.10;;;;;;;;;;5092495;28;20423;-40
2023/07/19 07:28:45;;;;;;;0.10;0.10;;;;;;;;;;5092532;28;20404;-42
2023/07/19 07:31:11;;;;;;;0.10;0.10;;;;;;;;;;5092624;28;20079;-44
2023/07/19 07:33:37;;;;;;;0.10;0.10;;;;;;;;;;5109857;28;20048;-43
2023/07/19 07:36:03;;;;;;;0.10;0.10;;;;;;;;;;5112699;28;20054;-40
2023/07/19 07:38:28;;;;;;;0.10;0.10;;;;;;;;;;5112561;28;20059;-40
2023/07/19 07:40:58;;;;;;;0.10;0.10;;;;;;;;;;5101953;28;20044;-42
2023/07/19 07:43:23;;;;;;;0.10;0.10;;;;;;;;;;5092710;28;20048;-41
2023/07/19 07:45:49;;;;;;;0.10;0.10;;;;;;;;;;5098572;28;20047;-39
2023/07/19 07:48:14;;;;;;;0.10;0.10;;;;;;;;;;5112425;28;20067;-41
2023/07/19 07:50:40;;;;;;;0.10;0.10;;;;;;;;;;5104962;28;20056;-41
2023/07/19 07:53:05;;;;;;;0.10;0.10;;;;;;;;;;5112321;28;20097;-44
2023/07/19 07:55:38;;;;;;;0.10;0.10;;;;;;;;;;5112503;28;20055;-42
2023/07/19 07:58:04;;;;;;;0.10;0.10;;;;;;;;;;5112511;28;20392;-43
2023/07/19 08:00:30;;;;;;;0.20;0.20;;;;;;;;;;5100810;28;20036;-43
2023/07/19 08:02:55;;;;;;;0.10;0.10;;;;;;;;;;5125323;28;20070;-43
2023/07/19 08:05:21;;;;;;;0.10;0.10;;;;;;;;;;5133185;28;20055;-40
2023/07/19 08:07:46;;;;;;;0.10;0.10;;;;;;;;;;5133249;28;20092;-42
2023/07/19 08:10:12;;;;;;;0.10;0.10;;;;;;;;;;5108775;28;20105;-41
2023/07/19 08:12:37;;;;;;;0.10;0.10;;;;;;;;;;5111220;28;20060;-43
2023/07/19 08:15:03;;;;;;;0.10;0.10;;;;;;;;;;5112082;28;20070;-40
2023/07/19 08:17:29;;;;;;;0.10;0.10;;;;;;;;;;5112157;28;20181;-39
2023/07/19 08:19:54;;;;;;;0.10;0.10;;;;;;;;;;5110448;28;20105;-43
2023/07/19 08:22:24;;;;;;;0.10;0.10;;;;;;;;;;5112197;28;20436;-44
2023/07/19 08:24:49;;;;;;;0.10;0.10;;;;;;;;;;5112206;28;20056;-41
2023/07/19 08:27:15;;;;;;;0.10;0.10;;;;;;;;;;5112317;28;20136;-44
2023/07/19 08:29:40;;;;;;;0.10;0.10;;;;;;;;;;5111567;28;20404;-42
2023/07/19 08:32:06;;;;;;;0.10;0.10;;;;;;;;;;5111507;28;20054;-41
2023/07/19 08:34:31;;;;;;;0.10;0.10;;;;;;;;;;5110509;28;20043;-43
2023/07/19 08:36:57;;;;;;;0.10;0.10;;;;;;;;;;5111912;28;20046;-44
2023/07/19 08:39:23;;;;;;;0.10;0.10;;;;;;;;;;5111838;28;20058;-41
2023/07/19 08:41:48;;;;;;;0.10;0.10;;;;;;;;;;5111412;28;20054;-42
2023/07/19 08:44:14;;;;;;;0.10;0.10;;;;;;;;;;5112204;28;20419;-43
2023/07/19 08:46:41;;;;;;;0.10;0.10;;;;;;;;;;5111751;28;20513;-43
2023/07/19 08:49:07;;;;;;;0.10;0.10;;;;;;;;;;5110987;28;20054;-42
2023/07/19 08:51:33;;;;;;;0.10;0.10;;;;;;;;;;5095371;28;20079;-40
2023/07/19 08:53:59;;;;;;;0.10;0.10;;;;;;;;;;5104931;28;20083;-42
2023/07/19 08:56:25;;;;;;;0.10;0.10;;;;;;;;;;5111562;28;20043;-39
2023/07/19 08:58:51;;;;;;;0.10;0.10;;;;;;;;;;5111682;28;20551;-42
2023/07/19 09:01:16;;;;;;;0.20;0.20;;;;;;;;;;5111038;27;20498;-44
2023/07/19 09:03:42;;;;;;;0.10;0.10;;;;;;;;;;5111806;28;20198;-43
2023/07/19 09:06:08;;;;;;;0.10;0.10;;;;;;;;;;5111373;28;20051;-41
2023/07/19 09:08:37;;;;;;;0.10;0.10;;;;;;;;;;5111459;28;20043;-43
2023/07/19 09:11:03;;;;;;;0.10;0.10;;;;;;;;;;5110760;28;20044;-41
2023/07/19 09:13:31;;;;;;;0.10;0.10;;;;;;;;;;5111579;28;20062;-43
2023/07/19 09:15:57;;;;;;;0.10;0.10;;;;;;;;;;5111224;28;20480;-42
2023/07/19 09:18:28;;;;;;;0.10;0.10;;;;;;;;;;5111142;28;20062;-42
2023/07/19 09:20:57;;;;;;;0.10;0.10;;;;;;;;;;5111226;28;20044;-42
2023/07/19 09:23:22;;;;;;;0.10;0.10;;;;;;;;;;5111394;28;20066;-44
2023/07/19 09:25:52;;;;;;;0.10;0.10;;;;;;;;;;5111227;28;20092;-43
2023/07/19 09:28:21;;;;;;;0.10;0.10;;;;;;;;;;5110792;28;20051;-40
2023/07/19 09:30:55;;;;;;;0.10;0.10;;;;;;;;;;5110469;28;20051;-44
2023/07/19 09:33:21;;;;;;;0.10;0.10;;;;;;;;;;5110043;28;20059;-41
2023/07/19 09:35:52;;;;;;;0.10;0.10;;;;;;;;;;5110349;28;20044;-42
2023/07/19 09:38:18;;;;;;;0.10;0.10;;;;;;;;;;5110242;28;20055;-41
2023/07/19 09:40:43;;;;;;;0.10;0.10;;;;;;;;;;5101220;28;20040;-42
2023/07/19 09:43:09;;;;;;;0.10;0.10;;;;;;;;;;5090054;28;20044;-41
2023/07/19 09:45:34;;;;;;;0.10;0.10;;;;;;;;;;5090659;28;20043;-43
2023/07/19 09:48:01;;;;;;;0.10;0.10;;;;;;;;;;5093569;28;20097;-43
2023/07/19 09:50:27;;;;;;;0.10;0.10;;;;;;;;;;5108393;28;20395;-41
2023/07/19 09:52:54;;;;;;;0.10;0.10;;;;;;;;;;5113931;28;20055;-42
2023/07/19 09:55:20;;;;;;;0.10;0.10;;;;;;;;;;5113556;28;20480;-44
2023/07/19 09:57:48;;;;;;;0.10;0.10;;;;;;;;;;5113947;28;20091;-40
2023/07/19 10:00:14;;;;;;;0.10;0.10;;;;;;;;;;5113423;28;20066;-43
2023/07/19 10:02:39;;;;;;;0.10;0.10;;;;;;;;;;5113884;28;20052;-44
2023/07/19 10:05:06;;;;;;;0.10;0.10;;;;;;;;;;5114150;28;20075;-40
2023/07/19 10:07:32;;;;;;;0.10;0.10;;;;;;;;;;5114035;28;20069;-42
2023/07/19 10:10:16;;;;;;;0.10;0.10;;;;;;;;;;5112457;28;20054;-42
2023/07/19 10:12:45;;;;;;;0.10;0.10;;;;;;;;;;5113443;28;20040;-42
2023/07/19 10:15:12;;;;;;;0.10;0.10;;;;;;;;;;5113781;28;20084;-40
2023/07/19 10:17:40;;;;;;;0.10;0.10;;;;;;;;;;5113149;28;20055;-41
2023/07/19 10:20:14;;;;;;;0.10;0.10;;;;;;;;;;5095193;28;20291;-43
2023/07/19 10:22:55;;;;;;;0.10;0.10;;;;;;;;;;5113574;28;20048;-42
2023/07/19 10:25:37;;;;;;;0.10;0.10;;;;;;;;;;5113641;28;20043;-41
2023/07/19 10:28:05;;;;;;;0.10;0.10;;;;;;;;;;5114010;28;20096;-41
2023/07/19 10:30:44;;;;;;;0.10;0.10;;;;;;;;;;5113037;28;20081;-40
2023/07/19 10:33:10;;;;;;;0.10;0.10;;;;;;;;;;5113515;28;20133;-42
2023/07/19 10:35:36;;;;;;;0.10;0.10;;;;;;;;;;5112741;28;20069;-44
2023/07/19 10:38:02;;;;;;;0.10;0.10;;;;;;;;;;5112950;28;20060;-41
2023/07/19 10:40:31;;;;;;;0.10;0.10;;;;;;;;;;5105898;28;20112;-40
2023/07/19 10:42:56;;;;;;;0.10;0.10;;;;;;;;;;5112327;28;20503;-42
2023/07/19 10:45:25;;;;;;;0.10;0.10;;;;;;;;;;5113200;28;20511;-41
2023/07/19 10:47:51;;;;;;;0.10;0.10;;;;;;;;;;5113180;28;20043;-41
2023/07/19 10:50:17;;;;;;;0.10;0.10;;;;;;;;;;5113078;28;20051;-41
2023/07/19 10:52:45;;;;;;;0.10;0.10;;;;;;;;;;5113131;28;20044;-42
2023/07/19 10:55:10;;;;;;;0.10;0.10;;;;;;;;;;5113396;28;20399;-42
2023/07/19 10:57:40;;;;;;;0.10;0.10;;;;;;;;;;5112561;28;20480;-42
2023/07/19 11:00:12;;;;;;;0.10;0.10;;;;;;;;;;5104594;28;20081;-40
2023/07/19 11:02:40;;;;;;;0.10;0.10;;;;;;;;;;5113633;28;20052;-44
2023/07/19 11:05:06;;;;;;;0.10;0.10;;;;;;;;;;5113626;28;20130;-44
2023/07/19 11:07:32;;;;;;;0.10;0.10;;;;;;;;;;5113734;28;20058;-44
2023/07/19 11:09:57;;;;;;;0.10;0.10;;;;;;;;;;5112319;28;20051;-42
2023/07/19 11:12:23;;;;;;;0.10;0.10;;;;;;;;;;5113463;28;20279;-41
2023/07/19 11:14:58;;;;;;;0.10;0.10;;;;;;;;;;5113425;28;20052;-40
2023/07/19 11:17:25;;;;;;;0.10;0.10;;;;;;;;;;5112374;28;20404;-40
2023/07/19 11:19:50;;;;;;;0.10;0.10;;;;;;;;;;5112876;28;20047;-42
2023/07/19 11:22:20;;;;;;;0.10;0.10;;;;;;;;;;5113245;28;20054;-42
2023/07/19 11:24:46;;;;;;;0.10;0.10;;;;;;;;;;5113020;28;20480;-41
2023/07/19 11:27:12;;;;;;;0.10;0.10;;;;;;;;;;5113348;28;20094;-42
2023/07/19 11:29:37;;;;;;;0.10;0.10;;;;;;;;;;5113141;28;20047;-42
2023/07/19 11:32:20;;;;;;;0.10;0.10;;;;;;;;;;5094275;28;20096;-42
2023/07/19 11:34:47;;;;;;;0.10;0.10;;;;;;;;;;5113006;28;20143;-44
2023/07/19 11:37:21;;;;;;;0.10;0.10;;;;;;;;;;5112549;28;20039;-44
2023/07/19 11:39:47;;;;;;;0.10;0.10;;;;;;;;;;5112120;28;20510;-40
2023/07/19 11:42:13;;;;;;;0.10;0.10;;;;;;;;;;5092107;28;20055;-43
2023/07/19 11:44:43;;;;;;;0.10;0.10;;;;;;;;;;5112091;28;20043;-41
2023/07/19 11:47:08;;;;;;;0.10;0.10;;;;;;;;;;5112489;28;20043;-40
2023/07/19 11:49:34;;;;;;;0.10;0.10;;;;;;;;;;5112183;28;20279;-42
2023/07/19 11:52:00;;;;;;;0.10;0.10;;;;;;;;;;5112304;28;20043;-41
2023/07/19 11:54:25;;;;;;;0.10;0.10;;;;;;;;;;5112516;28;20047;-40
2023/07/19 11:56:53;;;;;;;;;;;;;;;;;;5112762;28;20051;-43
2023/07/19 11:59:19;;;;;;;0.10;0.10;;;;;;;;;;5111915;28;20018;-43
2023/07/19 12:01:44;;;;;;;0.10;0.10;;;;;;;;;;5096661;28;20050;-40
2023/07/19 12:04:10;;;;;;;0.10;0.10;;;;;;;;;;5092603;28;20051;-42
2023/07/19 12:06:35;;;;;;;0.10;0.10;;;;;;;;;;5112839;28;20130;-42
2023/07/19 12:09:01;;;;;;;0.10;0.10;;;;;;;;;;5111356;28;20101;-41
2023/07/19 12:11:27;;;;;;;0.10;0.10;;;;;;;;;;5111564;28;20091;-41
2023/07/19 12:13:53;;;;;;;0.10;0.10;;;;;;;;;;5112310;28;20048;-43
2023/07/19 12:16:18;;;;;;;0.10;0.10;;;;;;;;;;5111876;28;20052;-41
2023/07/19 12:18:45;;;;;;;0.10;0.10;;;;;;;;;;5112132;28;20051;-40
2023/07/19 12:21:10;;;;;;;0.10;0.10;;;;;;;;;;5111765;28;20044;-41
2023/07/19 12:23:36;;;;;;;0.10;0.10;;;;;;;;;;5112266;28;20072;-43
2023/07/19 12:26:06;;;;;;;0.10;0.10;;;;;;;;;;5112092;28;20453;-41
2023/07/19 12:28:31;;;;;;;0.10;0.10;;;;;;;;;;5112139;28;20524;-40
2023/07/19 12:30:57;;;;;;;0.10;0.10;;;;;;;;;;5111683;28;20130;-42
2023/07/19 12:33:22;;;;;;;0.10;0.10;;;;;;;;;;5112188;28;20377;-43
2023/07/19 12:35:48;;;;;;;0.10;0.10;;;;;;;;;;5112155;28;20138;-41
2023/07/19 12:38:14;;;;;;;0.10;0.10;;;;;;;;;;5111682;28;20055;-42
2023/07/19 12:40:40;;;;;;;0.10;0.10;;;;;;;;;;5109947;28;20047;-41
2023/07/19 12:43:06;;;;;;;0.10;0.10;;;;;;;;;;5110129;28;20063;-42
2023/07/19 12:45:31;;;;;;;0.10;0.10;;;;;;;;;;5110901;28;20396;-42
2023/07/19 12:47:57;;;;;;;0.10;0.10;;;;;;;;;;5111744;28;20055;-41
2023/07/19 12:50:22;;;;;;;0.17;0.17;;;;;;;;;;5105306;28;20048;-41
2023/07/19 12:52:48;;;;;;;0.10;0.10;;;;;;;;;;5091244;28;20138;-42
2023/07/19 12:55:18;;;;;;;0.10;0.10;;;;;;;;;;5101957;28;20476;-42
2023/07/19 12:57:43;;;;;;;0.10;0.10;;;;;;;;;;5111297;28;20054;-39
2023/07/19 13:00:13;;;;;;;0.10;0.10;;;;;;;;;;5110944;28;20048;-44
2023/07/19 13:02:39;;;;;;;0.10;0.10;;;;;;;;;;5111758;28;20044;-40
2023/07/19 13:05:05;;;;;;;0.10;0.10;;;;;;;;;;5111586;28;20554;-41
2023/07/19 13:07:31;;;;;;;0.10;0.10;;;;;;;;;;5111463;28;20047;-40
2023/07/19 13:09:56;;;;;;;0.10;0.10;;;;;;;;;;5110057;28;20048;-40
2023/07/19 13:12:22;;;;;;;0.10;0.10;;;;;;;;;;5110788;28;20187;-41
2023/07/19 13:14:48;;;;;;;0.10;0.10;;;;;;;;;;5111122;28;20378;-40
2023/07/19 13:17:14;;;;;;;0.10;0.10;;;;;;;;;;5110514;28;20078;-41
2023/07/19 13:19:47;;;;;;;0.10;0.10;;;;;;;;;;5109901;28;20040;-41
2023/07/19 13:22:13;;;;;;;0.10;0.10;;;;;;;;;;5110434;28;20395;-42
2023/07/19 13:24:38;;;;;;;0.10;0.10;;;;;;;;;;5110850;28;20504;-40
2023/07/19 13:27:05;;;;;;;0.10;0.10;;;;;;;;;;5110541;28;20043;-40
2023/07/19 13:29:30;;;;;;;0.10;0.10;;;;;;;;;;5110793;28;20443;-40
2023/07/19 13:31:56;;;;;;;0.10;0.10;;;;;;;;;;5110474;28;20044;-40
2023/07/19 13:34:22;;;;;;;0.10;0.10;;;;;;;;;;5110451;28;20047;-40
2023/07/19 13:36:47;;;;;;;0.10;0.10;;;;;;;;;;5111003;28;20172;-40
2023/07/19 13:39:16;;;;;;;0.10;0.10;;;;;;;;;;5110850;28;20039;-41
2023/07/19 13:41:41;;;;;;;0.10;0.10;;;;;;;;;;5109841;28;20073;-41
2023/07/19 13:44:07;;;;;;;0.22;0.22;;;;;;;;;;5110266;28;20322;-38
2023/07/19 13:46:35;;;;;;;0.10;0.10;;;;;;;;;;5109929;28;20052;-41
2023/07/19 13:49:00;;;;;;;;;;;;;;;;;;5111011;28;20051;-40
2023/07/19 13:51:26;;;;;;;0.10;0.10;;;;;;;;;;5095805;28;19919;-39
2023/07/19 13:53:51;;;;;;;0.10;0.10;;;;;;;;;;5090585;28;20067;-40
2023/07/19 13:56:17;;;;;;;0.10;0.10;;;;;;;;;;5094590;28;20050;-43
2023/07/19 13:58:43;;;;;;;0.20;0.20;;;;;;;;;;5109604;28;20147;-42
2023/07/19 14:01:08;;;;;;;0.10;0.10;;;;;;;;;;5110432;28;20549;-41
2023/07/19 14:03:34;;;;;;;0.10;0.10;;;;;;;;;;5108618;28;20051;-39
2023/07/19 14:06:00;;;;;;;0.10;0.10;;;;;;;;;;5090502;28;20056;-40
2023/07/19 14:08:25;;;;;;;0.10;0.10;;;;;;;;;;5090666;28;20476;-41
2023/07/19 14:10:51;;;;;;;0.10;0.10;;;;;;;;;;5099918;28;20055;-43
2023/07/19 14:13:17;;;;;;;0.10;0.10;;;;;;;;;;5110478;28;20481;-39
2023/07/19 14:15:45;;;;;;;0.10;0.10;;;;;;;;;;5110481;28;20055;-40
2023/07/19 14:18:12;;;;;;;0.10;0.10;;;;;;;;;;5110769;28;20050;-40
2023/07/19 14:20:38;;;;;;;0.10;0.10;;;;;;;;;;5110391;28;20052;-41
2023/07/19 14:23:03;;;;;;;0.10;0.10;;;;;;;;;;5110613;28;20050;-41
2023/07/19 14:25:29;;;;;;;0.10;0.10;;;;;;;;;;5110610;28;20132;-42
2023/07/19 14:27:55;;;;;;;0.10;0.10;;;;;;;;;;5110605;28;20506;-39
2023/07/19 14:30:20;;;;;;;0.10;0.10;;;;;;;;;;5110437;28;20135;-41
2023/07/19 14:32:46;;;;;;;0.10;0.10;;;;;;;;;;5112379;28;20075;-41
2023/07/19 14:35:13;;;;;;;0.10;0.10;;;;;;;;;;5114078;28;20441;-41
2023/07/19 14:37:38;;;;;;;0.10;0.10;;;;;;;;;;5113983;28;20484;-38